createdAt,value
2022-10-21T00:01:24.588Z,10.85
2022-10-21T00:06:26.578Z,10.30
2022-10-21T00:11:28.376Z,10.00
2022-10-21T00:16:30.031Z,10.82
2022-10-21T00:21:31.655Z,10.90
2022-10-21T00:26:36.227Z,10.27
2022-10-21T00:31:40.029Z,9.25
2022-10-21T00:36:41.615Z,10.45
2022-10-21T00:41:43.409Z,10.65
2022-10-21T00:46:59.190Z,10.40
2022-10-21T00:52:05.619Z,9.73
2022-10-21T00:57:08.702Z,9.63
2022-10-21T01:02:10.263Z,9.50
2022-10-21T01:07:12.460Z,9.98
2022-10-21T01:12:29.807Z,9.98
2022-10-21T01:18:00.807Z,9.30
2022-10-21T01:23:33.130Z,9.63
2022-10-21T01:28:54.059Z,9.00
2022-10-21T01:34:07.986Z,9.75
2022-10-21T01:39:28.046Z,9.52
2022-10-21T01:44:53.905Z,10.38
2022-10-21T01:50:02.058Z,9.45
2022-10-21T01:55:12.406Z,9.52
2022-10-21T02:00:14.247Z,9.57
2022-10-21T02:05:22.578Z,10.00
2022-10-21T02:10:27.857Z,9.90
2022-10-21T02:15:30.636Z,10.23
2022-10-21T02:20:37.461Z,10.30
2022-10-21T02:25:43.748Z,10.68
2022-10-21T02:31:00.758Z,10.20
2022-10-21T02:36:17.132Z,10.55
2022-10-21T02:41:23.350Z,10.00
2022-10-21T02:46:25.916Z,10.70
2022-10-21T02:51:27.593Z,10.55
2022-10-21T03:01:35.815Z,10.00
2022-10-21T03:06:37.476Z,10.45
2022-10-21T03:11:38.990Z,10.25
2022-10-21T03:16:40.712Z,10.52
2022-10-21T03:21:42.491Z,10.57
2022-10-21T03:26:44.072Z,10.15
2022-10-21T03:31:45.715Z,11.18
2022-10-21T03:36:47.321Z,10.40
2022-10-21T03:41:48.943Z,10.70
2022-10-21T03:46:50.830Z,11.32
2022-10-21T03:51:52.480Z,10.40
2022-10-21T03:56:54.179Z,10.68
2022-10-21T04:01:55.821Z,11.40
2022-10-21T04:06:57.718Z,10.85
2022-10-21T04:11:59.372Z,10.50
2022-10-21T04:17:07.625Z,10.27
2022-10-21T04:22:10.033Z,11.02
2022-10-21T04:27:11.571Z,10.65
2022-10-21T04:32:13.261Z,11.57
2022-10-21T04:37:14.836Z,12.02
2022-10-21T04:42:16.545Z,10.95
2022-10-21T04:47:18.179Z,11.18
2022-10-21T04:52:19.730Z,10.60
2022-10-21T04:57:21.309Z,11.02
2022-10-21T05:02:25.383Z,11.02
2022-10-21T05:07:27.739Z,10.10
2022-10-21T05:12:29.635Z,10.70
2022-10-21T05:17:31.222Z,11.18
2022-10-21T05:22:33.346Z,11.38
2022-10-21T05:27:35.081Z,11.93
2022-10-21T05:32:37.790Z,10.95
2022-10-21T05:37:39.530Z,11.30
2022-10-21T05:42:41.477Z,11.07
2022-10-21T05:47:43.806Z,11.48
2022-10-21T05:52:45.432Z,12.90
2022-10-21T05:57:47.154Z,10.98
2022-10-21T06:02:49.107Z,10.18
2022-10-21T06:07:50.803Z,9.73
2022-10-21T06:12:52.493Z,11.93
2022-10-21T06:17:54.035Z,10.18
2022-10-21T06:22:55.848Z,11.25
2022-10-21T06:27:57.382Z,10.55
2022-10-21T06:32:58.978Z,11.55
2022-10-21T06:38:00.773Z,11.50
2022-10-21T06:43:02.365Z,9.63
2022-10-21T06:48:04.349Z,11.15
2022-10-21T06:53:05.970Z,10.98
2022-10-21T06:58:07.515Z,9.85
2022-10-21T07:03:09.055Z,10.07
2022-10-21T07:08:12.125Z,10.85
2022-10-21T07:13:14.557Z,10.55
2022-10-21T07:18:16.468Z,11.38
2022-10-21T07:23:18.433Z,11.90
2022-10-21T07:28:24.885Z,14.18
2022-10-21T07:33:27.234Z,12.98
2022-10-21T07:38:28.734Z,12.32
2022-10-21T07:48:32.110Z,10.98
2022-10-21T07:53:34.560Z,9.50
2022-10-21T07:58:36.487Z,9.20
2022-10-21T08:03:38.682Z,10.80
2022-10-21T08:08:41.141Z,9.07
2022-10-21T08:13:43.036Z,9.02
2022-10-21T08:18:44.652Z,9.00
2022-10-21T08:23:47.055Z,8.77
2022-10-21T08:28:48.621Z,8.70
2022-10-21T08:38:55.624Z,8.45
2022-10-21T08:44:19.740Z,8.55
2022-10-21T08:49:30.941Z,9.10
2022-10-21T08:54:47.718Z,7.68
2022-10-21T08:59:49.754Z,9.65
2022-10-21T09:05:15.469Z,8.10
2022-10-21T09:10:38.273Z,8.88
2022-10-21T09:16:01.764Z,8.73
2022-10-21T09:21:20.067Z,8.77
2022-10-21T09:26:33.337Z,8.23
2022-10-21T09:31:34.972Z,8.10
2022-10-21T09:36:38.851Z,8.05
2022-10-21T09:41:44.760Z,7.68
2022-10-21T09:46:47.927Z,7.30
2022-10-21T09:51:49.966Z,6.47
2022-10-21T09:56:56.922Z,7.28
2022-10-21T10:02:07.085Z,6.78
2022-10-21T10:07:31.968Z,6.68
2022-10-21T10:12:34.074Z,7.50
2022-10-21T10:36:32.305Z,5.85
2022-10-21T10:41:45.467Z,5.28
2022-10-21T10:46:54.748Z,5.00
2022-10-21T10:52:11.185Z,5.10
2022-10-21T10:57:20.090Z,4.90
2022-10-21T11:02:55.880Z,5.43
2022-10-21T11:08:21.174Z,5.35
2022-10-21T11:13:24.623Z,5.47
2022-10-21T11:18:28.956Z,5.57
2022-10-21T11:23:47.190Z,5.28
2022-10-21T11:29:13.508Z,4.63
2022-10-21T11:35:00.155Z,5.05
2022-10-21T11:40:15.844Z,5.00
2022-10-21T11:45:40.018Z,5.13
2022-10-21T11:51:14.285Z,4.45
2022-10-21T11:56:43.135Z,4.20
2022-10-21T12:02:30.564Z,3.97
2022-10-21T12:07:54.104Z,3.08
2022-10-21T12:12:57.548Z,5.07
2022-10-21T12:18:01.866Z,3.03
2022-10-21T12:23:05.663Z,2.83
2022-10-21T12:28:29.679Z,3.38
2022-10-21T12:33:40.766Z,2.63
2022-10-21T12:38:48.736Z,2.88
2022-10-21T12:44:05.011Z,3.80
2022-10-21T12:49:22.401Z,3.10
2022-10-21T12:54:47.813Z,2.95
2022-10-21T12:59:49.271Z,3.13
2022-10-21T13:04:56.131Z,3.42
2022-10-21T13:10:00.654Z,3.13
2022-10-21T13:15:22.085Z,3.67
2022-10-21T13:20:23.552Z,3.75
2022-10-21T13:25:34.576Z,3.00
2022-10-21T13:30:39.115Z,4.00
2022-10-21T13:35:46.732Z,3.63
2022-10-21T13:40:54.365Z,4.53
2022-10-21T13:46:16.437Z,4.43
2022-10-21T13:51:25.047Z,4.32
2022-10-21T13:56:33.546Z,4.73
2022-10-21T14:01:47.296Z,3.72
2022-10-21T14:07:06.046Z,4.00
2022-10-21T14:12:18.160Z,3.72
2022-10-21T14:17:23.181Z,4.28
2022-10-21T14:22:25.917Z,4.20
2022-10-21T14:27:30.161Z,4.95
2022-10-21T14:32:32.139Z,4.32
2022-10-21T14:37:43.655Z,4.45
2022-10-21T14:42:47.690Z,4.07
2022-10-21T14:47:55.370Z,3.83
2022-10-21T14:52:56.939Z,4.28
2022-10-21T15:08:56.295Z,4.82
2022-10-21T15:14:18.022Z,4.53
2022-10-21T15:19:47.205Z,4.43
2022-10-21T15:24:50.245Z,3.78
2022-10-21T15:29:52.215Z,4.90
2022-10-21T15:34:54.004Z,4.75
2022-10-21T15:39:55.546Z,5.00
2022-10-21T15:44:57.166Z,4.45
2022-10-21T15:49:59.138Z,4.50
2022-10-21T15:55:00.759Z,3.97
2022-10-21T16:00:02.614Z,4.50
2022-10-21T16:05:06.259Z,4.10
2022-10-21T16:10:16.833Z,4.43
2022-10-21T16:15:19.465Z,4.70
2022-10-21T16:20:36.271Z,5.43
2022-10-21T16:26:04.262Z,6.20
2022-10-21T16:31:10.340Z,5.38
2022-10-21T16:36:27.626Z,5.28
2022-10-21T16:41:44.838Z,6.00
2022-10-21T16:52:16.676Z,6.75
2022-10-21T16:57:21.807Z,5.97
2022-10-21T17:02:30.981Z,5.78
2022-10-21T17:07:36.186Z,6.20
2022-10-21T17:12:37.952Z,8.18
2022-10-21T17:17:39.999Z,8.75
2022-10-21T17:22:54.590Z,9.63
2022-10-21T17:28:02.068Z,8.90
2022-10-21T17:33:04.337Z,8.57
2022-10-21T17:38:06.190Z,9.50
2022-10-21T17:43:08.121Z,8.88
2022-10-21T17:48:13.593Z,10.65
2022-10-21T17:53:15.336Z,11.27
2022-10-21T17:58:18.634Z,9.70
2022-10-21T18:03:20.257Z,9.40
2022-10-21T18:08:23.305Z,9.52
2022-10-21T18:13:26.826Z,7.97
2022-10-21T18:18:28.393Z,7.50
2022-10-21T18:23:30.215Z,6.80
2022-10-21T18:28:35.128Z,7.75
2022-10-21T18:33:39.366Z,7.47
2022-10-21T18:38:41.161Z,7.50
2022-10-21T18:43:47.171Z,7.15
2022-10-21T18:48:49.192Z,8.00
2022-10-21T18:53:53.006Z,8.07
2022-10-21T18:58:58.524Z,8.63
2022-10-21T19:04:00.222Z,9.15
2022-10-21T19:09:04.422Z,8.00
2022-10-21T19:14:09.730Z,8.07
2022-10-21T19:19:16.289Z,8.48
2022-10-21T19:24:17.820Z,8.25
2022-10-21T19:29:21.830Z,8.82
2022-10-21T19:34:26.771Z,7.45
2022-10-21T19:39:28.535Z,8.13
2022-10-21T19:44:30.731Z,7.03
2022-10-21T19:49:32.903Z,7.35
2022-10-21T19:54:34.646Z,7.90
2022-10-21T19:59:38.606Z,8.02
2022-10-21T20:04:40.140Z,9.15
2022-10-21T20:09:41.795Z,9.18
2022-10-21T20:14:43.610Z,8.40
2022-10-21T20:19:49.116Z,8.77
2022-10-21T20:24:53.644Z,8.70
2022-10-21T20:29:55.349Z,8.40
2022-10-21T20:34:56.862Z,8.07
2022-10-21T20:39:58.412Z,7.20
2022-10-21T20:44:59.879Z,8.63
2022-10-21T20:50:01.494Z,8.20
2022-10-21T20:55:03.069Z,7.85
2022-10-21T21:00:05.404Z,7.60
2022-10-21T21:05:07.651Z,7.32
2022-10-21T21:10:09.560Z,7.45
2022-10-21T21:15:11.105Z,8.57
2022-10-21T21:20:12.607Z,7.35
2022-10-21T21:25:14.128Z,9.00
2022-10-21T21:30:15.646Z,10.55
2022-10-21T21:35:17.219Z,10.23
2022-10-21T21:40:18.781Z,8.90
2022-10-21T21:45:20.344Z,9.82
2022-10-21T21:50:22.239Z,10.77
2022-10-21T21:55:24.111Z,9.98
2022-10-21T22:00:25.783Z,9.00
2022-10-21T22:05:27.558Z,8.32
2022-10-21T22:10:29.386Z,7.78
2022-10-21T22:15:47.081Z,7.15
2022-10-21T22:20:49.452Z,5.47
2022-10-21T22:25:50.952Z,5.32
2022-10-21T22:30:58.075Z,5.43
2022-10-21T22:35:59.705Z,5.47
2022-10-21T22:41:05.198Z,5.60
2022-10-21T22:51:31.133Z,5.30
2022-10-21T22:56:32.930Z,5.30
2022-10-21T23:01:34.504Z,5.35
2022-10-21T23:06:36.090Z,6.05
2022-10-21T23:11:37.829Z,5.63
2022-10-21T23:16:39.557Z,6.35
2022-10-21T23:21:42.261Z,6.18
2022-10-21T23:26:43.719Z,5.95
2022-10-21T23:31:45.279Z,6.40
2022-10-21T23:36:46.802Z,7.28
2022-10-21T23:41:48.402Z,9.52
2022-10-21T23:46:49.911Z,9.10
2022-10-21T23:51:51.428Z,8.20
2022-10-21T23:56:53.301Z,8.13
